createdAt,value
2023-03-11T00:01:07.692Z,100571.09
2023-03-11T00:03:34.527Z,100568.50
2023-03-11T00:06:02.583Z,100572.84
2023-03-11T00:08:30.803Z,100569.38
2023-03-11T00:11:00.685Z,100578.03
2023-03-11T00:13:30.091Z,100578.81
2023-03-11T00:15:58.035Z,100577.88
2023-03-11T00:18:30.091Z,100575.22
2023-03-11T00:20:59.253Z,100575.16
2023-03-11T00:23:27.517Z,100575.06
2023-03-11T00:25:55.021Z,100581.94
2023-03-11T00:28:26.746Z,100588.78
2023-03-11T00:30:54.007Z,100591.28
2023-03-11T00:33:20.969Z,100593.88
2023-03-11T00:35:48.044Z,100593.81
2023-03-11T00:38:17.099Z,100599.84
2023-03-11T00:40:47.255Z,100605.88
2023-03-11T00:43:16.222Z,100605.84
2023-03-11T00:45:43.203Z,100603.19
2023-03-11T00:48:12.593Z,100605.75
2023-03-11T00:50:40.702Z,100618.66
2023-03-11T00:53:07.784Z,100611.72
2023-03-11T00:55:35.820Z,100617.75
2023-03-11T00:58:07.540Z,100614.25
2023-03-11T01:00:46.509Z,100620.25
2023-03-11T01:03:13.423Z,100620.22
2023-03-11T01:05:40.537Z,100627.97
2023-03-11T01:08:07.578Z,100629.69
2023-03-11T01:10:35.537Z,100629.63
2023-03-11T01:13:03.388Z,100626.19
2023-03-11T01:15:35.098Z,100633.06
2023-03-11T01:18:03.300Z,100633.94
2023-03-11T01:20:32.805Z,100639.97
2023-03-11T01:22:59.621Z,100634.81
2023-03-11T01:25:28.719Z,100648.66
2023-03-11T01:27:59.292Z,100654.66
2023-03-11T01:30:28.480Z,100652.91
2023-03-11T01:32:57.877Z,100654.59
2023-03-11T01:35:31.726Z,100665.75
2023-03-11T01:37:59.488Z,100665.72
2023-03-11T01:40:35.857Z,100664.84
2023-03-11T01:43:41.328Z,100662.25
2023-03-11T01:46:37.419Z,100657.91
2023-03-11T01:49:05.920Z,100664.00
2023-03-11T01:51:41.557Z,100670.03
2023-03-11T01:54:18.359Z,100660.56
2023-03-11T01:56:46.839Z,100663.16
2023-03-11T01:59:19.697Z,100666.63
2023-03-11T02:02:02.343Z,100670.13
2023-03-11T02:04:29.479Z,100671.88
2023-03-11T02:06:57.342Z,100677.06
2023-03-11T02:09:26.905Z,100677.06
2023-03-11T02:11:56.180Z,100672.78
2023-03-11T02:14:29.257Z,100679.66
2023-03-11T02:16:58.767Z,100673.63
2023-03-11T02:19:28.754Z,100676.16
2023-03-11T02:21:57.409Z,100680.53
2023-03-11T02:24:55.390Z,100683.19
2023-03-11T02:27:25.683Z,100684.06
2023-03-11T02:29:54.068Z,100691.09
2023-03-11T02:32:22.560Z,100685.06
2023-03-11T02:34:49.775Z,100692.03
2023-03-11T02:37:18.606Z,100697.28
2023-03-11T02:39:54.819Z,100692.97
2023-03-11T02:42:29.188Z,100695.53
2023-03-11T02:45:12.546Z,100692.94
2023-03-11T02:47:41.192Z,100693.81
2023-03-11T02:50:15.299Z,100697.34
2023-03-11T02:52:42.779Z,100699.09
2023-03-11T02:55:16.066Z,100694.81
2023-03-11T02:57:43.103Z,100698.25
2023-03-11T03:00:14.714Z,100697.41
2023-03-11T03:02:46.862Z,100700.06
2023-03-11T03:05:14.265Z,100691.47
2023-03-11T03:07:42.024Z,100691.47
2023-03-11T03:10:10.235Z,100694.97
2023-03-11T03:12:37.210Z,100683.72
2023-03-11T03:15:04.620Z,100689.78
2023-03-11T03:17:31.792Z,100690.63
2023-03-11T03:19:59.093Z,100696.66
2023-03-11T03:22:27.510Z,100701.88
2023-03-11T03:24:54.954Z,100699.31
2023-03-11T03:27:22.207Z,100706.22
2023-03-11T03:29:49.294Z,100712.25
2023-03-11T03:32:16.687Z,100715.69
2023-03-11T03:34:43.815Z,100719.97
2023-03-11T03:37:10.831Z,100728.66
2023-03-11T03:39:37.947Z,100735.56
2023-03-11T03:42:06.048Z,100732.94
2023-03-11T03:44:35.939Z,100745.03
2023-03-11T03:47:03.054Z,100745.03
2023-03-11T03:49:30.216Z,100748.53
2023-03-11T03:51:57.659Z,100756.31
2023-03-11T03:54:31.571Z,100751.13
2023-03-11T03:56:59.307Z,100756.31
2023-03-11T03:59:26.337Z,100751.97
2023-03-11T04:01:58.123Z,100758.06
2023-03-11T04:04:26.885Z,100764.09
2023-03-11T04:06:54.554Z,100760.63
2023-03-11T04:09:21.750Z,100756.31
2023-03-11T04:11:48.762Z,100753.66
2023-03-11T04:14:16.920Z,100757.94
2023-03-11T04:16:52.112Z,100761.38
2023-03-11T04:19:19.033Z,100771.66
2023-03-11T04:21:46.609Z,100775.94
2023-03-11T04:24:13.539Z,100780.19
2023-03-11T04:26:40.487Z,100778.38
2023-03-11T04:29:11.750Z,100777.38
2023-03-11T04:31:42.834Z,100779.84
2023-03-11T04:34:09.893Z,100772.78
2023-03-11T04:36:38.996Z,100783.06
2023-03-11T04:39:08.386Z,100785.56
2023-03-11T04:41:40.931Z,100786.34
2023-03-11T04:44:10.278Z,100797.53
2023-03-11T04:46:37.633Z,100794.09
2023-03-11T04:49:07.370Z,100789.72
2023-03-11T04:51:34.461Z,100789.69
2023-03-11T04:54:01.470Z,100794.81
2023-03-11T04:56:30.178Z,100792.22
2023-03-11T04:58:57.754Z,100798.19
2023-03-11T05:01:25.750Z,100798.16
2023-03-11T05:03:53.049Z,100799.00
2023-03-11T05:06:20.196Z,100798.16
2023-03-11T05:08:47.851Z,100803.28
2023-03-11T05:11:14.890Z,100804.16
2023-03-11T05:13:44.158Z,100802.38
2023-03-11T05:16:11.875Z,100803.19
2023-03-11T05:18:39.059Z,100802.28
2023-03-11T05:21:06.818Z,100808.22
2023-03-11T05:23:36.398Z,100804.69
2023-03-11T05:26:03.562Z,100814.06
2023-03-11T05:28:31.931Z,100818.25
2023-03-11T05:30:58.848Z,100823.34
2023-03-11T05:33:28.517Z,100823.38
2023-03-11T05:35:55.613Z,100818.22
2023-03-11T05:38:22.593Z,100823.38
2023-03-11T05:40:49.764Z,100823.41
2023-03-11T05:43:16.697Z,100820.84
2023-03-11T05:45:50.628Z,100826.91
2023-03-11T05:48:17.565Z,100822.59
2023-03-11T05:50:44.613Z,100826.06
2023-03-11T05:53:11.773Z,100830.34
2023-03-11T05:55:42.468Z,100836.41
2023-03-11T05:58:09.791Z,100841.59
2023-03-11T06:00:37.132Z,100847.66
2023-03-11T06:03:05.283Z,100846.75
2023-03-11T06:05:32.287Z,100851.00
2023-03-11T06:07:59.700Z,100851.88
2023-03-11T06:10:26.561Z,100856.19
2023-03-11T06:12:53.687Z,100859.59
2023-03-11T06:15:24.718Z,100867.34
2023-03-11T06:17:53.308Z,100864.75
2023-03-11T06:20:20.803Z,100863.88
2023-03-11T06:22:51.914Z,100866.53
2023-03-11T06:25:22.098Z,100871.72
2023-03-11T06:27:52.378Z,100880.38
2023-03-11T06:30:21.266Z,100873.59
2023-03-11T06:33:01.329Z,100887.47
2023-03-11T06:35:28.441Z,100885.72
2023-03-11T06:37:56.150Z,100890.97
2023-03-11T06:40:23.428Z,100896.09
2023-03-11T06:42:50.610Z,100904.72
2023-03-11T06:45:20.707Z,100901.25
2023-03-11T06:47:48.690Z,100902.97
2023-03-11T06:50:16.475Z,100910.75
2023-03-11T06:52:43.761Z,100909.09
2023-03-11T06:55:13.042Z,100914.34
2023-03-11T06:57:42.637Z,100916.16
2023-03-11T07:00:13.658Z,100922.31
2023-03-11T07:02:47.188Z,100926.72
2023-03-11T07:05:16.145Z,100931.19
2023-03-11T07:07:43.482Z,100942.56
2023-03-11T07:10:11.926Z,100946.16
2023-03-11T07:12:38.931Z,100944.56
2023-03-11T07:15:06.937Z,100945.56
2023-03-11T07:17:35.871Z,100948.28
2023-03-11T07:20:04.232Z,100950.97
2023-03-11T07:22:31.124Z,100949.31
2023-03-11T07:24:58.063Z,100959.78
2023-03-11T07:27:25.237Z,100958.19
2023-03-11T07:29:52.183Z,100959.13
2023-03-11T07:32:19.222Z,100967.03
2023-03-11T07:34:46.230Z,100974.03
2023-03-11T07:37:13.134Z,100977.53
2023-03-11T07:39:40.177Z,100979.41
2023-03-11T07:42:10.216Z,100975.16
2023-03-11T07:44:37.085Z,100984.75
2023-03-11T07:47:06.303Z,100977.91
2023-03-11T07:49:34.199Z,100979.75
2023-03-11T07:52:01.166Z,100978.94
2023-03-11T07:54:28.327Z,100986.00
2023-03-11T07:56:55.307Z,100979.19
2023-03-11T07:59:22.353Z,100984.50
2023-03-11T08:01:50.590Z,100981.16
2023-03-11T08:04:17.711Z,100988.22
2023-03-11T08:06:47.970Z,100994.34
2023-03-11T08:09:15.359Z,100995.31
2023-03-11T08:11:42.788Z,100997.16
2023-03-11T08:14:10.364Z,100998.09
2023-03-11T08:16:41.134Z,100999.94
2023-03-11T08:19:12.567Z,101002.63
2023-03-11T08:21:40.004Z,100993.19
2023-03-11T08:24:07.448Z,100994.19
2023-03-11T08:26:34.437Z,101008.16
2023-03-11T08:29:01.460Z,101017.78
2023-03-11T08:31:31.925Z,101014.41
2023-03-11T08:34:06.900Z,101024.00
2023-03-11T08:36:34.323Z,101011.94
2023-03-11T08:39:02.084Z,101005.09
2023-03-11T08:41:29.286Z,101000.88
2023-03-11T08:43:56.800Z,100996.59
2023-03-11T08:46:34.756Z,101001.00
2023-03-11T08:49:03.431Z,101003.63
2023-03-11T08:51:34.032Z,101006.25
2023-03-11T08:54:02.290Z,101008.88
2023-03-11T08:56:30.245Z,101013.22
2023-03-11T08:58:57.479Z,101015.03
2023-03-11T09:01:25.014Z,101021.19
2023-03-11T09:03:52.572Z,101021.25
2023-03-11T09:06:19.932Z,101036.06
2023-03-11T09:08:48.977Z,101030.91
2023-03-11T09:11:18.287Z,101037.91
2023-03-11T09:13:45.725Z,101037.09
2023-03-11T09:16:17.008Z,101044.09
2023-03-11T09:18:46.026Z,101041.47
2023-03-11T09:21:13.490Z,101037.16
2023-03-11T09:23:44.151Z,101031.97
2023-03-11T09:26:12.572Z,101030.22
2023-03-11T09:28:41.514Z,101031.09
2023-03-11T09:31:08.775Z,101043.28
2023-03-11T09:33:42.282Z,101052.84
2023-03-11T09:36:15.471Z,101050.28
2023-03-11T09:38:43.626Z,101057.25
2023-03-11T09:41:51.521Z,101052.00
2023-03-11T09:44:37.110Z,101060.72
2023-03-11T09:47:18.378Z,101049.38
2023-03-11T09:50:15.041Z,101052.00
2023-03-11T09:53:08.735Z,101055.50
2023-03-11T09:55:50.386Z,101061.56
2023-03-11T09:58:48.712Z,101064.16
2023-03-11T10:01:29.060Z,101065.03
2023-03-11T10:04:04.901Z,101067.63
2023-03-11T10:06:31.921Z,101072.84
2023-03-11T10:09:32.850Z,101058.94
2023-03-11T10:12:27.429Z,101066.78
2023-03-11T10:15:48.361Z,101059.81
2023-03-11T10:18:48.737Z,101065.03
2023-03-11T10:21:46.414Z,101055.47
2023-03-11T10:24:31.566Z,101060.66
2023-03-11T10:27:09.483Z,101054.56
2023-03-11T10:30:13.662Z,101059.78
2023-03-11T10:32:59.985Z,101069.34
2023-03-11T10:35:42.527Z,101060.63
2023-03-11T10:38:26.323Z,101065.78
2023-03-11T10:41:03.229Z,101066.59
2023-03-11T10:43:52.854Z,101066.53
2023-03-11T10:46:26.644Z,101061.16
2023-03-11T10:48:54.226Z,101072.41
2023-03-11T10:51:34.288Z,101070.63
2023-03-11T10:54:04.098Z,101068.00
2023-03-11T10:56:34.187Z,101072.34
2023-03-11T10:59:06.685Z,101075.78
2023-03-11T11:01:34.216Z,101083.66
2023-03-11T11:04:04.982Z,101076.66
2023-03-11T11:06:37.285Z,101071.41
2023-03-11T11:09:26.811Z,101065.22
2023-03-11T11:12:15.066Z,101066.09
2023-03-11T11:14:50.193Z,101063.41
2023-03-11T11:17:30.104Z,101060.75
2023-03-11T11:19:59.129Z,101068.56
2023-03-11T11:22:26.995Z,101066.84
2023-03-11T11:24:56.393Z,101065.22
2023-03-11T11:27:29.338Z,101066.13
2023-03-11T11:30:12.354Z,101071.41
2023-03-11T11:32:39.670Z,101069.69
2023-03-11T11:35:12.833Z,101067.03
2023-03-11T11:37:52.240Z,101066.97
2023-03-11T11:40:27.469Z,101073.91
2023-03-11T11:43:06.368Z,101065.22
2023-03-11T11:45:45.579Z,101074.81
2023-03-11T11:48:33.571Z,101077.50
2023-03-11T11:51:06.246Z,101069.69
2023-03-11T11:54:09.128Z,101072.25
2023-03-11T11:56:36.280Z,101074.81
2023-03-11T11:59:16.342Z,101073.06
2023-03-11T12:01:54.570Z,101067.84
2023-03-11T12:05:02.306Z,101076.59
2023-03-11T12:08:23.536Z,101081.84
2023-03-11T12:11:04.055Z,101085.25
2023-03-11T12:13:49.833Z,101083.47
2023-03-11T12:16:19.921Z,101081.63
2023-03-11T12:19:01.118Z,101067.59
2023-03-11T12:22:05.211Z,101077.34
2023-03-11T12:25:03.250Z,101080.88
2023-03-11T12:27:44.869Z,101078.22
2023-03-11T12:30:23.213Z,101078.91
2023-03-11T12:33:04.294Z,101066.59
2023-03-11T12:35:35.688Z,101070.06
2023-03-11T12:38:17.409Z,101070.91
2023-03-11T12:41:21.175Z,101076.06
2023-03-11T12:43:48.195Z,101066.50
2023-03-11T12:46:17.921Z,101062.16
2023-03-11T12:48:49.827Z,101060.44
2023-03-11T12:52:05.614Z,101060.38
2023-03-11T12:55:01.157Z,101052.34
2023-03-11T12:57:58.605Z,101055.72
2023-03-11T13:00:55.870Z,101051.22
2023-03-11T13:03:41.531Z,101057.25
2023-03-11T13:07:13.132Z,101054.53
2023-03-11T13:09:40.637Z,101046.69
2023-03-11T13:12:46.190Z,101038.72
2023-03-11T13:15:22.140Z,101040.56
2023-03-11T13:18:05.231Z,101030.91
2023-03-11T13:20:41.531Z,101037.03
2023-03-11T13:23:12.996Z,101034.38
2023-03-11T13:26:04.534Z,101041.31
2023-03-11T13:29:22.730Z,101037.72
2023-03-11T13:32:44.009Z,101029.75
2023-03-11T13:35:35.854Z,101045.38
2023-03-11T13:38:16.632Z,101045.31
2023-03-11T13:40:47.479Z,101045.31
2023-03-11T13:43:23.523Z,101039.94
2023-03-11T13:46:08.319Z,101038.91
2023-03-11T13:48:44.922Z,101041.50
2023-03-11T13:51:24.962Z,101045.00
2023-03-11T13:54:17.841Z,101051.13
2023-03-11T13:56:53.938Z,101053.69
2023-03-11T13:59:52.688Z,101053.75
2023-03-11T14:02:24.953Z,101047.66
2023-03-11T14:05:17.560Z,101048.56
2023-03-11T14:07:44.723Z,101056.53
2023-03-11T14:10:11.660Z,101045.94
2023-03-11T14:12:40.251Z,101058.88
2023-03-11T14:15:12.934Z,101052.72
2023-03-11T14:17:40.154Z,101058.66
2023-03-11T14:20:18.404Z,101064.69
2023-03-11T14:22:49.808Z,101060.28
2023-03-11T14:25:25.403Z,101066.41
2023-03-11T14:28:02.974Z,101067.28
2023-03-11T14:30:33.327Z,101062.03
2023-03-11T14:33:16.102Z,101068.13
2023-03-11T14:36:00.063Z,101068.09
2023-03-11T14:38:31.829Z,101068.19
2023-03-11T14:41:02.779Z,101070.94
2023-03-11T14:43:41.154Z,101070.91
2023-03-11T14:46:12.494Z,101077.84
2023-03-11T14:48:44.110Z,101073.25
2023-03-11T14:51:20.151Z,101069.53
2023-03-11T14:54:06.365Z,101075.59
2023-03-11T14:56:41.751Z,101071.97
2023-03-11T14:59:27.133Z,101073.84
2023-03-11T15:02:00.286Z,101074.88
2023-03-11T15:04:44.183Z,101071.38
2023-03-11T15:07:11.363Z,101080.16
2023-03-11T15:09:43.833Z,101069.78
2023-03-11T15:12:37.251Z,101085.69
2023-03-11T15:15:23.389Z,101079.66
2023-03-11T15:17:59.121Z,101085.81
2023-03-11T15:20:37.605Z,101078.88
2023-03-11T15:23:07.705Z,101078.06
2023-03-11T15:25:38.599Z,101079.91
2023-03-11T15:28:27.478Z,101075.63
2023-03-11T15:31:20.402Z,101074.03
2023-03-11T15:33:48.290Z,101073.25
2023-03-11T15:36:30.991Z,101068.03
2023-03-11T15:39:43.819Z,101074.16
2023-03-11T15:42:18.165Z,101068.88
2023-03-11T15:45:15.395Z,101069.66
2023-03-11T15:47:43.688Z,101065.31
2023-03-11T15:50:24.979Z,101067.03
2023-03-11T15:52:56.298Z,101071.47
2023-03-11T15:55:26.827Z,101074.09
2023-03-11T15:58:05.292Z,101078.41
2023-03-11T16:00:32.838Z,101078.34
2023-03-11T16:03:00.533Z,101077.47
2023-03-11T16:05:28.211Z,101072.25
2023-03-11T16:07:55.270Z,101071.44
2023-03-11T16:10:25.766Z,101067.13
2023-03-11T16:12:53.559Z,101071.56
2023-03-11T16:15:28.468Z,101071.66
2023-03-11T16:18:00.997Z,101073.44
2023-03-11T16:20:38.945Z,101066.47
2023-03-11T16:23:18.966Z,101068.31
2023-03-11T16:25:47.885Z,101073.66
2023-03-11T16:28:17.590Z,101073.69
2023-03-11T16:30:44.752Z,101070.28
2023-03-11T16:33:11.882Z,101067.75
2023-03-11T16:35:38.937Z,101075.72
2023-03-11T16:38:08.241Z,101067.94
2023-03-11T16:40:36.188Z,101071.56
2023-03-11T16:43:08.361Z,101076.97
2023-03-11T16:45:35.788Z,101071.84
2023-03-11T16:48:10.057Z,101076.28
2023-03-11T16:50:37.764Z,101079.00
2023-03-11T16:53:06.158Z,101078.19
2023-03-11T16:55:33.198Z,101080.91
2023-03-11T16:58:00.251Z,101082.66
2023-03-11T17:00:27.328Z,101083.66
2023-03-11T17:02:54.596Z,101076.75
2023-03-11T17:05:22.001Z,101079.47
2023-03-11T17:07:54.381Z,101083.03
2023-03-11T17:10:23.825Z,101080.47
2023-03-11T17:12:50.872Z,101078.81
2023-03-11T17:15:18.033Z,101083.19
2023-03-11T17:17:44.945Z,101087.56
2023-03-11T17:20:12.667Z,101088.50
2023-03-11T17:22:39.750Z,101085.88
2023-03-11T17:25:07.777Z,101092.91
2023-03-11T17:27:35.054Z,101088.53
2023-03-11T17:30:05.681Z,101093.78
2023-03-11T17:32:33.514Z,101093.78
2023-03-11T17:35:00.627Z,101086.81
2023-03-11T17:37:27.759Z,101085.03
2023-03-11T17:39:54.901Z,101092.81
2023-03-11T17:42:22.219Z,101093.66
2023-03-11T17:44:52.082Z,101095.34
2023-03-11T17:47:20.075Z,101091.78
2023-03-11T17:49:49.576Z,101095.22
2023-03-11T17:52:16.589Z,101091.69
2023-03-11T17:54:44.619Z,101092.47
2023-03-11T17:57:11.909Z,101106.31
2023-03-11T17:59:38.998Z,101094.06
2023-03-11T18:02:07.803Z,101099.19
2023-03-11T18:04:34.850Z,101106.91
2023-03-11T18:07:01.913Z,101111.16
2023-03-11T18:09:28.894Z,101114.53
2023-03-11T18:11:56.086Z,101110.09
2023-03-11T18:14:23.127Z,101110.81
2023-03-11T18:16:50.201Z,101116.78
2023-03-11T18:19:17.150Z,101118.38
2023-03-11T18:21:44.556Z,101122.56
2023-03-11T18:24:11.768Z,101122.47
2023-03-11T18:26:40.251Z,101118.88
2023-03-11T18:29:07.214Z,101119.66
2023-03-11T18:31:40.350Z,101116.09
2023-03-11T18:34:15.104Z,101113.38
2023-03-11T18:36:42.860Z,101124.50
2023-03-11T18:39:12.586Z,101128.75
2023-03-11T18:41:39.969Z,101132.94
2023-03-11T18:44:08.444Z,101129.38
2023-03-11T18:46:35.626Z,101133.66
2023-03-11T18:49:04.044Z,101138.78
2023-03-11T18:51:34.204Z,101142.16
2023-03-11T18:54:02.318Z,101138.56
2023-03-11T18:56:31.166Z,101141.94
2023-03-11T18:59:00.143Z,101150.50
2023-03-11T19:01:28.301Z,101148.69
2023-03-11T19:03:58.583Z,101144.28
2023-03-11T19:06:28.072Z,101145.94
2023-03-11T19:08:55.824Z,101140.72
2023-03-11T19:11:24.862Z,101142.44
2023-03-11T19:13:53.937Z,101137.25
2023-03-11T19:16:25.228Z,101132.97
2023-03-11T19:18:57.454Z,101142.53
2023-03-11T19:21:25.800Z,101148.63
2023-03-11T19:23:55.272Z,101143.47
2023-03-11T19:26:37.457Z,101153.03
2023-03-11T19:29:14.154Z,101148.75
2023-03-11T19:31:43.827Z,101149.59
2023-03-11T19:34:11.511Z,101143.63
2023-03-11T19:36:39.453Z,101148.75
2023-03-11T19:39:06.969Z,101153.94
2023-03-11T19:41:34.735Z,101150.44
2023-03-11T19:44:04.040Z,101151.28
2023-03-11T19:46:34.530Z,101148.66
2023-03-11T19:49:03.180Z,101150.31
2023-03-11T19:51:38.767Z,101147.63
2023-03-11T19:54:16.101Z,101155.34
2023-03-11T19:56:43.751Z,101149.22
2023-03-11T19:59:10.785Z,101152.72
2023-03-11T20:01:38.047Z,101152.66
2023-03-11T20:04:05.833Z,101150.91
2023-03-11T20:06:33.027Z,101151.75
2023-03-11T20:09:00.230Z,101148.28
2023-03-11T20:11:27.192Z,101149.13
2023-03-11T20:13:54.482Z,101144.78
2023-03-11T20:16:22.573Z,101145.56
2023-03-11T20:18:51.111Z,101147.31
2023-03-11T20:21:18.794Z,101147.28
2023-03-11T20:23:46.058Z,101148.97
2023-03-11T20:26:17.729Z,101148.03
2023-03-11T20:28:44.798Z,101154.00
2023-03-11T20:31:19.946Z,101141.81
2023-03-11T20:33:50.011Z,101152.09
2023-03-11T20:36:21.557Z,101151.19
2023-03-11T20:38:51.253Z,101143.38
2023-03-11T20:41:18.800Z,101145.91
2023-03-11T20:43:46.129Z,101151.03
2023-03-11T20:46:13.346Z,101145.81
2023-03-11T20:48:40.610Z,101134.59
2023-03-11T20:51:12.915Z,101141.53
2023-03-11T20:53:40.397Z,101146.72
2023-03-11T20:56:11.792Z,101140.72
2023-03-11T20:58:39.353Z,101138.97
2023-03-11T21:01:15.995Z,101140.72
2023-03-11T21:03:44.261Z,101136.44
2023-03-11T21:06:24.045Z,101143.38
2023-03-11T21:08:55.020Z,101142.53
2023-03-11T21:11:24.510Z,101139.13
2023-03-11T21:13:52.836Z,101133.94
2023-03-11T21:16:20.910Z,101138.31
2023-03-11T21:18:49.545Z,101132.28
2023-03-11T21:21:18.837Z,101134.94
2023-03-11T21:23:47.182Z,101137.59
2023-03-11T21:26:16.639Z,101141.13
2023-03-11T21:28:47.108Z,101149.81
2023-03-11T21:31:18.957Z,101139.47
2023-03-11T21:33:47.677Z,101142.13
2023-03-11T21:36:16.596Z,101139.59
2023-03-11T21:38:46.941Z,101136.22
2023-03-11T21:41:21.593Z,101132.88
2023-03-11T21:43:48.904Z,101133.81
2023-03-11T21:46:19.212Z,101133.03
2023-03-11T21:48:47.247Z,101130.53
2023-03-11T21:51:17.467Z,101136.63
2023-03-11T21:53:45.021Z,101134.09
2023-03-11T21:56:13.561Z,101132.44
2023-03-11T21:58:42.081Z,101132.47
2023-03-11T22:01:10.517Z,101132.47
2023-03-11T22:03:38.682Z,101135.94
2023-03-11T22:06:10.663Z,101129.00
2023-03-11T22:08:38.279Z,101126.31
2023-03-11T22:11:17.369Z,101131.50
2023-03-11T22:13:47.273Z,101128.84
2023-03-11T22:16:15.047Z,101126.19
2023-03-11T22:18:42.217Z,101124.44
2023-03-11T22:21:10.844Z,101123.56
2023-03-11T22:23:38.118Z,101125.31
2023-03-11T22:26:05.069Z,101126.19
2023-03-11T22:28:32.392Z,101120.22
2023-03-11T22:30:59.402Z,101117.63
2023-03-11T22:33:26.438Z,101115.94
2023-03-11T22:35:56.926Z,101122.03
2023-03-11T22:38:24.320Z,101126.47
2023-03-11T22:40:52.083Z,101115.25
2023-03-11T22:43:19.657Z,101122.25
2023-03-11T22:45:46.903Z,101120.63
2023-03-11T22:48:14.479Z,101122.44
2023-03-11T22:50:47.397Z,101118.16
2023-03-11T22:53:15.640Z,101121.72
2023-03-11T22:55:44.663Z,101116.59
2023-03-11T22:58:12.468Z,101120.09
2023-03-11T23:00:40.380Z,101121.00
2023-03-11T23:03:07.480Z,101116.72
2023-03-11T23:05:41.558Z,101115.91
2023-03-11T23:08:12.003Z,101107.28
2023-03-11T23:10:45.386Z,101103.88
2023-03-11T23:13:13.324Z,101106.50
2023-03-11T23:15:45.884Z,101103.06
2023-03-11T23:18:15.743Z,101100.47
2023-03-11T23:20:44.664Z,101105.66
2023-03-11T23:23:13.660Z,101109.16
2023-03-11T23:25:41.606Z,101110.06
2023-03-11T23:28:09.098Z,101099.75
2023-03-11T23:30:36.406Z,101104.97
2023-03-11T23:33:03.958Z,101098.97
2023-03-11T23:35:32.375Z,101101.59
2023-03-11T23:38:00.351Z,101102.50
2023-03-11T23:40:27.489Z,101098.19
2023-03-11T23:42:54.542Z,101099.09
2023-03-11T23:45:21.589Z,101097.34
2023-03-11T23:47:48.585Z,101101.69
2023-03-11T23:50:16.289Z,101106.03
2023-03-11T23:52:43.773Z,101099.09
2023-03-11T23:55:11.778Z,101098.25
2023-03-11T23:57:39.011Z,101095.66
